Wednesday, January 17, 2018, 8:10 AM EST
Back to Local

KWAL, Wallops Flight Fac Airport

Location: Wallops Island, VA, United States Lat: 37.933
Local Time: 8:10 AM EST (13:10 GMT) Lon: -75.467
Time Zone: US/Eastern Elev: 39 ft

Show me the last for .
Show Decoded

2018-01-17 06:54 METAR KWAL 171154Z AUTO 32008KT 9SM OVC080 02/M01 A3029 RMK AO2 SLP254 T00221006
                 10022 20011 53004 =
2018-01-17 05:54 METAR KWAL 171054Z AUTO 32011G16KT 8SM FEW090 02/00 A3029 RMK AO2 SLP254
                 T00170000 =
2018-01-17 04:54 METAR KWAL 170954Z AUTO 28007KT 10SM OVC090 01/00 A3027 RMK AO2 SLP248 T00110000
                 =
2018-01-17 03:54 METAR KWAL 170854Z AUTO 29006KT 10SM CLR 02/01 A3028 RMK AO2 SLP250 T00170006
                 55006 =
2018-01-17 02:54 METAR KWAL 170754Z AUTO 29007KT 10SM CLR 02/00 A3028 RMK AO2 SLP249 T00170000 =
2018-01-17 01:54 METAR KWAL 170654Z AUTO 30004KT 10SM CLR 01/00 A3027 RMK AO2 SLP248 T00110000 =
2018-01-17 00:54 METAR KWAL 170554Z AUTO 29004KT 10SM FEW120 01/00 A3030 RMK AO2 SLP256 T00110000
                 10028 20011 56013 =
2018-01-16 23:54 METAR KWAL 170454Z AUTO 29006KT 10SM CLR 01/00 A3031 RMK AO2 SLP259 T00110000
                 400941017 =
2018-01-16 23:22 METAR KWAL 170422Z AUTO 30005KT 10SM SCT007 02/00 A3031 RMK AO2 T00170000 =
2018-01-16 22:54 METAR KWAL 170354Z AUTO 30005KT 10SM OVC006 02/00 A3032 RMK AO2 SLP262 T00170000
                 =
2018-01-16 22:16 METAR KWAL 170316Z AUTO 30005KT 10SM OVC006 02/00 A3033 RMK AO2 T00220000 =
2018-01-16 22:01 METAR KWAL 170301Z AUTO 28007KT 10SM OVC005 02/00 A3033 RMK AO2 T00170000 =
2018-01-16 21:54 METAR KWAL 170254Z AUTO 29007KT 10SM OVC006 02/00 A3033 RMK AO2 SLP268 T00170000
                 56008 =
2018-01-16 20:54 METAR KWAL 170154Z AUTO 29007KT 10SM OVC007 02/M01 A3034 RMK AO2 SLP269
                 T00171006 =
2018-01-16 20:14 METAR KWAL 170114Z AUTO 29005KT 10SM OVC009 01/M01 A3034 RMK AO2 T00111006 =
2018-01-16 19:54 METAR KWAL 170054Z AUTO 29003KT 10SM OVC011 02/00 A3034 RMK AO2 SLP270 T00170000
                 =
2018-01-16 18:54 METAR KWAL 162354Z AUTO 30005KT 10SM OVC014 03/00 A3036 RMK AO2 SLP277 T00280000
                 10094 20028 51005 =
2018-01-16 17:54 METAR KWAL 162254Z AUTO 28005KT 10SM OVC012 03/00 A3035 RMK AO2 SLP275 T00280000
                 =
2018-01-16 16:54 METAR KWAL 162154Z AUTO 27005KT 10SM BKN014 07/02 A3035 RMK AO2 SLP274 T00670022
                 =
2018-01-16 16:47 METAR KWAL 162147Z VRB05KT 10SM BKN016 08/04 A3035 RMK AO2 T00780039 =
2018-01-16 16:21 METAR KWAL 162121Z 02005KT 10SM FEW022 SCT027 08/04 A3034 RMK AO2 T00780039 =
2018-01-16 15:54 METAR KWAL 162054Z 06007KT 10SM BKN027 08/04 A3034 RMK AO2 SLP272 T00780039
                 56021 =
2018-01-16 15:32 METAR KWAL 162032Z 06008KT 10SM BKN028 08/04 A3035 RMK AO2 T00830039 =
2018-01-16 14:54 METAR KWAL 161954Z 06007KT 10SM FEW026 09/04 A3036 RMK AO2 SLP276 T00890039 =
2018-01-16 13:54 METAR KWAL 161854Z 07008KT 10SM SCT025 BKN180 OVC250 09/04 A3038 RMK AO2 SLP283
                 T00940039 =
2018-01-16 12:54 METAR KWAL 161754Z 05010KT 10SM CLR 09/03 A3041 RMK AO2 SLP293 T00890033 10089
                 21017 58023 =
2018-01-16 11:54 METAR KWAL 161654Z 05007KT 10SM CLR 08/03 A3043 RMK AO2 SLP302 T00830028 =
2018-01-16 10:54 METAR KWAL 161554Z VRB04KT 10SM FEW002 BKN250 06/01 A3046 RMK AO2 SLP311
                 T00560011 =
2018-01-16 09:54 METAR KWAL 161454Z 32005KT 8SM FEW002 SCT180 BKN250 03/01 A3048 RMK AO2 SLP317
                 T00280006 51002 =
2018-01-16 08:54 METAR KWAL 161354Z 31006KT 5SM BR CLR 00/M01 A3047 RMK AO2 SLP316 T00001006 =

Support USWX by starting your Amazon purchase here.